sensor_id;sensor_type;location;lat;lon;timestamp;P1;durP1;ratioP1;P2;durP2;ratioP2
7817;SDS011;3954;52.624;9.212;2023-05-10T00:00:41;3.80;;;2.30;;
7817;SDS011;3954;52.624;9.212;2023-05-10T00:03:08;2.70;;;2.40;;
7817;SDS011;3954;52.624;9.212;2023-05-10T00:05:34;4.13;;;2.33;;
7817;SDS011;3954;52.624;9.212;2023-05-10T00:08:00;2.78;;;2.40;;
7817;SDS011;3954;52.624;9.212;2023-05-10T00:10:26;3.00;;;2.28;;
7817;SDS011;3954;52.624;9.212;2023-05-10T00:12:53;5.10;;;2.45;;
7817;SDS011;3954;52.624;9.212;2023-05-10T00:15:19;3.72;;;2.50;;
7817;SDS011;3954;52.624;9.212;2023-05-10T00:17:45;2.50;;;2.30;;
7817;SDS011;3954;52.624;9.212;2023-05-10T00:20:11;3.40;;;2.50;;
7817;SDS011;3954;52.624;9.212;2023-05-10T00:22:37;2.50;;;2.20;;
7817;SDS011;3954;52.624;9.212;2023-05-10T00:25:04;3.60;;;2.35;;
7817;SDS011;3954;52.624;9.212;2023-05-10T00:27:30;2.40;;;2.20;;
7817;SDS011;3954;52.624;9.212;2023-05-10T00:29:57;2.77;;;2.20;;
7817;SDS011;3954;52.624;9.212;2023-05-10T00:32:23;2.80;;;2.40;;
7817;SDS011;3954;52.624;9.212;2023-05-10T00:34:49;2.97;;;2.40;;
7817;SDS011;3954;52.624;9.212;2023-05-10T00:37:15;3.17;;;2.35;;
7817;SDS011;3954;52.624;9.212;2023-05-10T00:39:41;3.37;;;2.30;;
7817;SDS011;3954;52.624;9.212;2023-05-10T00:42:07;3.00;;;2.28;;
7817;SDS011;3954;52.624;9.212;2023-05-10T00:44:33;2.67;;;2.20;;
7817;SDS011;3954;52.624;9.212;2023-05-10T00:47:00;3.88;;;2.30;;
7817;SDS011;3954;52.624;9.212;2023-05-10T00:49:27;3.60;;;2.40;;
7817;SDS011;3954;52.624;9.212;2023-05-10T00:51:53;2.70;;;2.30;;
7817;SDS011;3954;52.624;9.212;2023-05-10T00:54:19;2.83;;;2.42;;
7817;SDS011;3954;52.624;9.212;2023-05-10T00:56:45;3.60;;;2.50;;
7817;SDS011;3954;52.624;9.212;2023-05-10T00:59:14;2.97;;;2.40;;
7817;SDS011;3954;52.624;9.212;2023-05-10T01:01:41;3.00;;;2.70;;
7817;SDS011;3954;52.624;9.212;2023-05-10T01:04:08;2.80;;;2.60;;
7817;SDS011;3954;52.624;9.212;2023-05-10T01:06:35;3.30;;;2.47;;
7817;SDS011;3954;52.624;9.212;2023-05-10T01:09:01;3.05;;;2.40;;
7817;SDS011;3954;52.624;9.212;2023-05-10T01:11:27;3.60;;;2.42;;
7817;SDS011;3954;52.624;9.212;2023-05-10T01:13:55;3.92;;;2.50;;
7817;SDS011;3954;52.624;9.212;2023-05-10T01:16:21;2.92;;;2.60;;
7817;SDS011;3954;52.624;9.212;2023-05-10T01:18:47;3.72;;;2.40;;
7817;SDS011;3954;52.624;9.212;2023-05-10T01:21:17;3.15;;;2.58;;
7817;SDS011;3954;52.624;9.212;2023-05-10T01:29:39;4.20;;;2.40;;
7817;SDS011;3954;52.624;9.212;2023-05-10T01:32:17;4.60;;;2.58;;
7817;SDS011;3954;52.624;9.212;2023-05-10T01:34:48;4.05;;;2.40;;
7817;SDS011;3954;52.624;9.212;2023-05-10T01:37:20;5.13;;;2.70;;
7817;SDS011;3954;52.624;9.212;2023-05-10T01:39:48;4.55;;;2.65;;
7817;SDS011;3954;52.624;9.212;2023-05-10T01:42:16;3.40;;;2.45;;
7817;SDS011;3954;52.624;9.212;2023-05-10T01:44:45;2.78;;;2.53;;
7817;SDS011;3954;52.624;9.212;2023-05-10T01:47:15;3.33;;;2.60;;
7817;SDS011;3954;52.624;9.212;2023-05-10T01:49:45;4.93;;;2.60;;
7817;SDS011;3954;52.624;9.212;2023-05-10T01:52:12;2.90;;;2.60;;
7817;SDS011;3954;52.624;9.212;2023-05-10T01:54:41;3.60;;;2.80;;
7817;SDS011;3954;52.624;9.212;2023-05-10T01:57:08;3.30;;;2.53;;
7817;SDS011;3954;52.624;9.212;2023-05-10T01:59:37;2.97;;;2.67;;
7817;SDS011;3954;52.624;9.212;2023-05-10T02:02:05;5.40;;;2.60;;
7817;SDS011;3954;52.624;9.212;2023-05-10T02:04:32;4.72;;;2.67;;
7817;SDS011;3954;52.624;9.212;2023-05-10T02:07:02;4.65;;;2.78;;
7817;SDS011;3954;52.624;9.212;2023-05-10T02:09:28;3.90;;;2.65;;
7817;SDS011;3954;52.624;9.212;2023-05-10T02:11:56;3.30;;;2.90;;
7817;SDS011;3954;52.624;9.212;2023-05-10T02:14:24;3.00;;;2.70;;
7817;SDS011;3954;52.624;9.212;2023-05-10T02:16:51;3.50;;;2.70;;
7817;SDS011;3954;52.624;9.212;2023-05-10T02:19:19;4.78;;;2.90;;
7817;SDS011;3954;52.624;9.212;2023-05-10T02:21:46;4.30;;;3.10;;
7817;SDS011;3954;52.624;9.212;2023-05-10T02:24:13;2.97;;;2.72;;
7817;SDS011;3954;52.624;9.212;2023-05-10T02:26:41;3.60;;;2.85;;
7817;SDS011;3954;52.624;9.212;2023-05-10T02:29:08;2.83;;;2.60;;
7817;SDS011;3954;52.624;9.212;2023-05-10T02:31:34;5.03;;;3.00;;
7817;SDS011;3954;52.624;9.212;2023-05-10T02:34:01;3.92;;;2.80;;
7817;SDS011;3954;52.624;9.212;2023-05-10T02:36:28;3.58;;;2.90;;
7817;SDS011;3954;52.624;9.212;2023-05-10T02:38:54;3.10;;;2.80;;
7817;SDS011;3954;52.624;9.212;2023-05-10T02:41:22;4.85;;;3.00;;
7817;SDS011;3954;52.624;9.212;2023-05-10T02:43:49;3.45;;;2.85;;
7817;SDS011;3954;52.624;9.212;2023-05-10T02:46:16;3.15;;;2.85;;
7817;SDS011;3954;52.624;9.212;2023-05-10T02:48:42;3.10;;;2.80;;
7817;SDS011;3954;52.624;9.212;2023-05-10T02:51:08;3.60;;;2.60;;
7817;SDS011;3954;52.624;9.212;2023-05-10T02:53:37;3.40;;;2.75;;
7817;SDS011;3954;52.624;9.212;2023-05-10T02:56:05;4.15;;;3.20;;
7817;SDS011;3954;52.624;9.212;2023-05-10T02:58:35;4.30;;;2.90;;
7817;SDS011;3954;52.624;9.212;2023-05-10T03:01:01;3.30;;;3.00;;
7817;SDS011;3954;52.624;9.212;2023-05-10T03:03:27;3.25;;;2.92;;
7817;SDS011;3954;52.624;9.212;2023-05-10T03:05:53;3.38;;;3.08;;
7817;SDS011;3954;52.624;9.212;2023-05-10T03:08:20;3.33;;;2.95;;
7817;SDS011;3954;52.624;9.212;2023-05-10T03:10:48;3.20;;;2.90;;
7817;SDS011;3954;52.624;9.212;2023-05-10T03:13:20;3.83;;;3.00;;
7817;SDS011;3954;52.624;9.212;2023-05-10T03:15:53;4.20;;;3.25;;
7817;SDS011;3954;52.624;9.212;2023-05-10T03:18:22;4.30;;;3.03;;
7817;SDS011;3954;52.624;9.212;2023-05-10T03:20:49;4.15;;;3.03;;
7817;SDS011;3954;52.624;9.212;2023-05-10T03:23:19;5.20;;;3.10;;
7817;SDS011;3954;52.624;9.212;2023-05-10T03:25:46;3.75;;;3.40;;
7817;SDS011;3954;52.624;9.212;2023-05-10T03:28:13;4.10;;;3.20;;
7817;SDS011;3954;52.624;9.212;2023-05-10T03:30:40;3.42;;;3.10;;
7817;SDS011;3954;52.624;9.212;2023-05-10T03:33:08;3.50;;;3.20;;
7817;SDS011;3954;52.624;9.212;2023-05-10T03:35:34;4.03;;;3.42;;
7817;SDS011;3954;52.624;9.212;2023-05-10T03:38:00;3.90;;;3.30;;
7817;SDS011;3954;52.624;9.212;2023-05-10T03:40:26;3.75;;;3.45;;
7817;SDS011;3954;52.624;9.212;2023-05-10T03:42:54;4.13;;;3.50;;
7817;SDS011;3954;52.624;9.212;2023-05-10T03:45:20;4.78;;;3.58;;
7817;SDS011;3954;52.624;9.212;2023-05-10T03:47:46;3.92;;;3.53;;
7817;SDS011;3954;52.624;9.212;2023-05-10T03:50:13;3.92;;;3.60;;
7817;SDS011;3954;52.624;9.212;2023-05-10T03:52:39;3.60;;;3.30;;
7817;SDS011;3954;52.624;9.212;2023-05-10T03:55:06;4.15;;;3.78;;
7817;SDS011;3954;52.624;9.212;2023-05-10T03:57:32;4.75;;;4.10;;
7817;SDS011;3954;52.624;9.212;2023-05-10T03:59:58;4.40;;;4.00;;
7817;SDS011;3954;52.624;9.212;2023-05-10T04:02:24;4.43;;;3.72;;
7817;SDS011;3954;52.624;9.212;2023-05-10T04:04:50;4.70;;;3.65;;
7817;SDS011;3954;52.624;9.212;2023-05-10T04:07:18;4.80;;;4.07;;
7817;SDS011;3954;52.624;9.212;2023-05-10T04:09:44;5.35;;;3.83;;
7817;SDS011;3954;52.624;9.212;2023-05-10T04:12:10;4.65;;;3.97;;
7817;SDS011;3954;52.624;9.212;2023-05-10T04:14:36;6.40;;;4.28;;
7817;SDS011;3954;52.624;9.212;2023-05-10T04:17:02;4.07;;;3.65;;
7817;SDS011;3954;52.624;9.212;2023-05-10T04:19:28;4.40;;;4.00;;
7817;SDS011;3954;52.624;9.212;2023-05-10T04:21:55;4.22;;;3.75;;
7817;SDS011;3954;52.624;9.212;2023-05-10T04:24:22;4.50;;;4.10;;
7817;SDS011;3954;52.624;9.212;2023-05-10T04:26:48;6.60;;;4.30;;
7817;SDS011;3954;52.624;9.212;2023-05-10T04:29:14;4.38;;;3.97;;
7817;SDS011;3954;52.624;9.212;2023-05-10T04:31:40;4.00;;;3.60;;
7817;SDS011;3954;52.624;9.212;2023-05-10T04:34:06;4.00;;;3.60;;
7817;SDS011;3954;52.624;9.212;2023-05-10T04:36:32;4.20;;;3.80;;
7817;SDS011;3954;52.624;9.212;2023-05-10T04:39:00;4.30;;;3.90;;
7817;SDS011;3954;52.624;9.212;2023-05-10T04:41:29;4.82;;;4.03;;
7817;SDS011;3954;52.624;9.212;2023-05-10T04:44:03;5.80;;;4.07;;
7817;SDS011;3954;52.624;9.212;2023-05-10T04:46:29;7.78;;;4.80;;
7817;SDS011;3954;52.624;9.212;2023-05-10T04:48:55;5.43;;;4.90;;
7817;SDS011;3954;52.624;9.212;2023-05-10T04:51:21;5.65;;;5.05;;
7817;SDS011;3954;52.624;9.212;2023-05-10T04:53:47;6.40;;;5.60;;
7817;SDS011;3954;52.624;9.212;2023-05-10T04:56:13;6.10;;;5.50;;
7817;SDS011;3954;52.624;9.212;2023-05-10T04:58:40;8.65;;;6.10;;
7817;SDS011;3954;52.624;9.212;2023-05-10T05:01:06;6.13;;;5.53;;
7817;SDS011;3954;52.624;9.212;2023-05-10T05:03:33;6.90;;;5.63;;
7817;SDS011;3954;52.624;9.212;2023-05-10T05:05:59;5.77;;;5.20;;
7817;SDS011;3954;52.624;9.212;2023-05-10T05:08:25;6.40;;;5.60;;
7817;SDS011;3954;52.624;9.212;2023-05-10T05:10:51;6.20;;;5.60;;
7817;SDS011;3954;52.624;9.212;2023-05-10T05:13:17;6.43;;;5.70;;
7817;SDS011;3954;52.624;9.212;2023-05-10T05:15:44;6.00;;;5.50;;
7817;SDS011;3954;52.624;9.212;2023-05-10T05:18:10;6.28;;;5.53;;
7817;SDS011;3954;52.624;9.212;2023-05-10T05:20:36;8.95;;;6.00;;
7817;SDS011;3954;52.624;9.212;2023-05-10T05:23:02;8.03;;;5.63;;
7817;SDS011;3954;52.624;9.212;2023-05-10T05:25:28;7.28;;;5.85;;
7817;SDS011;3954;52.624;9.212;2023-05-10T05:27:54;7.10;;;6.10;;
7817;SDS011;3954;52.624;9.212;2023-05-10T05:30:20;6.90;;;5.95;;
7817;SDS011;3954;52.624;9.212;2023-05-10T05:32:48;6.93;;;6.13;;
7817;SDS011;3954;52.624;9.212;2023-05-10T05:35:14;7.75;;;6.95;;
7817;SDS011;3954;52.624;9.212;2023-05-10T05:37:40;7.60;;;6.07;;
7817;SDS011;3954;52.624;9.212;2023-05-10T05:40:06;6.83;;;6.13;;
7817;SDS011;3954;52.624;9.212;2023-05-10T05:42:32;9.00;;;6.93;;
7817;SDS011;3954;52.624;9.212;2023-05-10T05:44:58;6.63;;;6.03;;
7817;SDS011;3954;52.624;9.212;2023-05-10T05:47:24;7.10;;;6.40;;
7817;SDS011;3954;52.624;9.212;2023-05-10T05:49:52;7.93;;;7.05;;
7817;SDS011;3954;52.624;9.212;2023-05-10T05:52:18;7.40;;;6.70;;
7817;SDS011;3954;52.624;9.212;2023-05-10T05:54:44;8.60;;;7.70;;
7817;SDS011;3954;52.624;9.212;2023-05-10T05:57:10;8.10;;;7.30;;
7817;SDS011;3954;52.624;9.212;2023-05-10T05:59:36;8.52;;;7.30;;
7817;SDS011;3954;52.624;9.212;2023-05-10T06:02:06;7.75;;;7.05;;
7817;SDS011;3954;52.624;9.212;2023-05-10T06:04:32;8.38;;;6.63;;
7817;SDS011;3954;52.624;9.212;2023-05-10T06:07:00;7.03;;;6.43;;
7817;SDS011;3954;52.624;9.212;2023-05-10T06:09:26;7.53;;;6.82;;
7817;SDS011;3954;52.624;9.212;2023-05-10T06:11:52;7.88;;;7.00;;
7817;SDS011;3954;52.624;9.212;2023-05-10T06:14:19;6.97;;;6.28;;
7817;SDS011;3954;52.624;9.212;2023-05-10T06:16:45;7.72;;;6.97;;
7817;SDS011;3954;52.624;9.212;2023-05-10T06:19:11;7.10;;;6.40;;
7817;SDS011;3954;52.624;9.212;2023-05-10T06:21:37;7.05;;;6.35;;
7817;SDS011;3954;52.624;9.212;2023-05-10T06:24:05;7.93;;;7.20;;
7817;SDS011;3954;52.624;9.212;2023-05-10T06:26:31;7.15;;;6.45;;
7817;SDS011;3954;52.624;9.212;2023-05-10T06:28:57;7.17;;;6.47;;
7817;SDS011;3954;52.624;9.212;2023-05-10T06:31:23;7.43;;;6.75;;
7817;SDS011;3954;52.624;9.212;2023-05-10T06:33:49;7.90;;;7.03;;
7817;SDS011;3954;52.624;9.212;2023-05-10T06:36:15;7.60;;;6.93;;
7817;SDS011;3954;52.624;9.212;2023-05-10T06:38:41;7.97;;;7.20;;
7817;SDS011;3954;52.624;9.212;2023-05-10T06:41:09;8.10;;;7.30;;
7817;SDS011;3954;52.624;9.212;2023-05-10T06:43:35;7.80;;;7.10;;
7817;SDS011;3954;52.624;9.212;2023-05-10T06:46:04;7.82;;;7.03;;
7817;SDS011;3954;52.624;9.212;2023-05-10T06:48:31;7.45;;;6.80;;
7817;SDS011;3954;52.624;9.212;2023-05-10T06:50:58;9.65;;;8.65;;
7817;SDS011;3954;52.624;9.212;2023-05-10T06:53:24;8.60;;;7.90;;
7817;SDS011;3954;52.624;9.212;2023-05-10T06:55:50;9.75;;;8.52;;
7817;SDS011;3954;52.624;9.212;2023-05-10T06:58:17;7.88;;;7.18;;
7817;SDS011;3954;52.624;9.212;2023-05-10T07:00:43;9.43;;;7.30;;
7817;SDS011;3954;52.624;9.212;2023-05-10T07:03:10;7.30;;;6.70;;
7817;SDS011;3954;52.624;9.212;2023-05-10T07:05:36;8.17;;;7.10;;
7817;SDS011;3954;52.624;9.212;2023-05-10T07:08:02;7.47;;;6.88;;
7817;SDS011;3954;52.624;9.212;2023-05-10T07:10:28;7.30;;;6.60;;
7817;SDS011;3954;52.624;9.212;2023-05-10T07:12:54;7.78;;;7.10;;
7817;SDS011;3954;52.624;9.212;2023-05-10T07:15:22;7.60;;;6.90;;
7817;SDS011;3954;52.624;9.212;2023-05-10T07:17:48;8.00;;;7.30;;
7817;SDS011;3954;52.624;9.212;2023-05-10T07:20:14;8.97;;;8.13;;
7817;SDS011;3954;52.624;9.212;2023-05-10T07:22:40;8.25;;;7.55;;
7817;SDS011;3954;52.624;9.212;2023-05-10T07:25:06;7.93;;;7.13;;
7817;SDS011;3954;52.624;9.212;2023-05-10T07:27:32;8.67;;;7.87;;
7817;SDS011;3954;52.624;9.212;2023-05-10T07:29:58;9.70;;;8.80;;
7817;SDS011;3954;52.624;9.212;2023-05-10T07:32:26;9.15;;;8.35;;
7817;SDS011;3954;52.624;9.212;2023-05-10T07:34:52;9.00;;;8.10;;
7817;SDS011;3954;52.624;9.212;2023-05-10T07:37:18;9.00;;;8.10;;
7817;SDS011;3954;52.624;9.212;2023-05-10T07:39:45;7.65;;;7.05;;
7817;SDS011;3954;52.624;9.212;2023-05-10T07:42:11;8.43;;;7.63;;
7817;SDS011;3954;52.624;9.212;2023-05-10T07:44:36;7.63;;;6.93;;
7817;SDS011;3954;52.624;9.212;2023-05-10T07:47:02;9.18;;;8.27;;
7817;SDS011;3954;52.624;9.212;2023-05-10T07:49:30;7.85;;;7.15;;
7817;SDS011;3954;52.624;9.212;2023-05-10T07:51:56;8.10;;;7.40;;
7817;SDS011;3954;52.624;9.212;2023-05-10T07:54:22;6.70;;;6.20;;
7817;SDS011;3954;52.624;9.212;2023-05-10T07:56:48;7.40;;;6.70;;
7817;SDS011;3954;52.624;9.212;2023-05-10T07:59:14;6.18;;;5.70;;
7817;SDS011;3954;52.624;9.212;2023-05-10T08:01:41;6.20;;;5.70;;
7817;SDS011;3954;52.624;9.212;2023-05-10T08:04:08;5.70;;;5.30;;
7817;SDS011;3954;52.624;9.212;2023-05-10T08:06:35;4.68;;;4.28;;
7817;SDS011;3954;52.624;9.212;2023-05-10T08:09:01;3.67;;;3.40;;
7817;SDS011;3954;52.624;9.212;2023-05-10T08:11:27;3.60;;;3.33;;
7817;SDS011;3954;52.624;9.212;2023-05-10T08:13:53;3.47;;;3.28;;
7817;SDS011;3954;52.624;9.212;2023-05-10T08:16:19;3.15;;;2.95;;
7817;SDS011;3954;52.624;9.212;2023-05-10T08:18:46;3.20;;;3.00;;
7817;SDS011;3954;52.624;9.212;2023-05-10T08:21:12;3.43;;;3.13;;
7817;SDS011;3954;52.624;9.212;2023-05-10T08:23:40;3.08;;;2.80;;
7817;SDS011;3954;52.624;9.212;2023-05-10T08:26:06;3.60;;;3.30;;
7817;SDS011;3954;52.624;9.212;2023-05-10T08:28:32;3.22;;;2.97;;
7817;SDS011;3954;52.624;9.212;2023-05-10T08:30:58;3.75;;;3.45;;
7817;SDS011;3954;52.624;9.212;2023-05-10T08:33:23;3.85;;;3.55;;
7817;SDS011;3954;52.624;9.212;2023-05-10T08:35:49;3.42;;;3.13;;
7817;SDS011;3954;52.624;9.212;2023-05-10T08:38:15;3.55;;;3.25;;
7817;SDS011;3954;52.624;9.212;2023-05-10T08:40:43;3.70;;;3.40;;
7817;SDS011;3954;52.624;9.212;2023-05-10T08:43:10;3.85;;;3.55;;
7817;SDS011;3954;52.624;9.212;2023-05-10T08:45:38;3.65;;;3.40;;
7817;SDS011;3954;52.624;9.212;2023-05-10T08:48:05;3.60;;;3.30;;
7817;SDS011;3954;52.624;9.212;2023-05-10T08:50:31;3.50;;;3.30;;
7817;SDS011;3954;52.624;9.212;2023-05-10T08:52:57;3.75;;;3.45;;
7817;SDS011;3954;52.624;9.212;2023-05-10T08:55:24;4.80;;;4.40;;
7817;SDS011;3954;52.624;9.212;2023-05-10T08:57:52;4.03;;;3.73;;
7817;SDS011;3954;52.624;9.212;2023-05-10T09:00:18;4.20;;;3.90;;
7817;SDS011;3954;52.624;9.212;2023-05-10T09:02:45;4.18;;;3.88;;
7817;SDS011;3954;52.624;9.212;2023-05-10T09:05:11;4.10;;;3.80;;
7817;SDS011;3954;52.624;9.212;2023-05-10T09:07:37;3.72;;;3.42;;
7817;SDS011;3954;52.624;9.212;2023-05-10T09:10:04;3.30;;;3.05;;
7817;SDS011;3954;52.624;9.212;2023-05-10T09:12:30;3.42;;;3.13;;
7817;SDS011;3954;52.624;9.212;2023-05-10T09:14:58;3.63;;;3.30;;
7817;SDS011;3954;52.624;9.212;2023-05-10T09:17:25;4.57;;;3.40;;
7817;SDS011;3954;52.624;9.212;2023-05-10T09:19:56;3.42;;;2.80;;
7817;SDS011;3954;52.624;9.212;2023-05-10T09:22:22;2.90;;;2.70;;
7817;SDS011;3954;52.624;9.212;2023-05-10T09:25:02;3.00;;;2.80;;
7817;SDS011;3954;52.624;9.212;2023-05-10T09:27:28;3.40;;;2.80;;
7817;SDS011;3954;52.624;9.212;2023-05-10T09:29:54;3.50;;;3.20;;
7817;SDS011;3954;52.624;9.212;2023-05-10T09:32:22;3.38;;;3.08;;
7817;SDS011;3954;52.624;9.212;2023-05-10T09:34:53;3.20;;;2.90;;
7817;SDS011;3954;52.624;9.212;2023-05-10T09:37:19;4.10;;;3.70;;
7817;SDS011;3954;52.624;9.212;2023-05-10T09:39:54;4.07;;;3.78;;
7817;SDS011;3954;52.624;9.212;2023-05-10T09:42:20;4.28;;;3.72;;
7817;SDS011;3954;52.624;9.212;2023-05-10T09:44:46;4.23;;;3.83;;
7817;SDS011;3954;52.624;9.212;2023-05-10T09:47:16;4.40;;;4.10;;
7817;SDS011;3954;52.624;9.212;2023-05-10T09:49:44;4.43;;;4.03;;
7817;SDS011;3954;52.624;9.212;2023-05-10T09:52:15;4.85;;;4.40;;
7817;SDS011;3954;52.624;9.212;2023-05-10T09:54:42;4.93;;;4.25;;
7817;SDS011;3954;52.624;9.212;2023-05-10T09:57:18;5.00;;;4.50;;
7817;SDS011;3954;52.624;9.212;2023-05-10T09:59:46;4.90;;;4.40;;
7817;SDS011;3954;52.624;9.212;2023-05-10T10:02:12;5.03;;;4.63;;
7817;SDS011;3954;52.624;9.212;2023-05-10T10:04:39;4.43;;;4.03;;
7817;SDS011;3954;52.624;9.212;2023-05-10T10:07:07;5.10;;;4.40;;
7817;SDS011;3954;52.624;9.212;2023-05-10T10:09:33;5.05;;;4.55;;
7817;SDS011;3954;52.624;9.212;2023-05-10T10:12:00;4.87;;;4.40;;
7817;SDS011;3954;52.624;9.212;2023-05-10T10:14:26;5.30;;;4.80;;
7817;SDS011;3954;52.624;9.212;2023-05-10T10:16:52;5.37;;;4.90;;
7817;SDS011;3954;52.624;9.212;2023-05-10T10:19:18;5.85;;;5.35;;
7817;SDS011;3954;52.624;9.212;2023-05-10T10:21:44;5.63;;;5.13;;
7817;SDS011;3954;52.624;9.212;2023-05-10T10:24:12;4.97;;;4.50;;
7817;SDS011;3954;52.624;9.212;2023-05-10T10:26:38;5.50;;;5.00;;
7817;SDS011;3954;52.624;9.212;2023-05-10T10:29:07;5.72;;;5.00;;
7817;SDS011;3954;52.624;9.212;2023-05-10T10:31:36;4.80;;;4.35;;
7817;SDS011;3954;52.624;9.212;2023-05-10T10:34:05;5.40;;;4.90;;
7817;SDS011;3954;52.624;9.212;2023-05-10T10:36:39;4.90;;;4.50;;
7817;SDS011;3954;52.624;9.212;2023-05-10T10:39:08;4.18;;;3.78;;
7817;SDS011;3954;52.624;9.212;2023-05-10T10:41:36;4.50;;;4.10;;
7817;SDS011;3954;52.624;9.212;2023-05-10T10:44:22;4.82;;;4.43;;
7817;SDS011;3954;52.624;9.212;2023-05-10T10:46:58;4.88;;;4.38;;
7817;SDS011;3954;52.624;9.212;2023-05-10T10:49:25;5.03;;;4.63;;
7817;SDS011;3954;52.624;9.212;2023-05-10T10:54:36;6.72;;;6.13;;
7817;SDS011;3954;52.624;9.212;2023-05-10T10:57:12;6.20;;;5.47;;
7817;SDS011;3954;52.624;9.212;2023-05-10T10:59:41;6.60;;;6.00;;
7817;SDS011;3954;52.624;9.212;2023-05-10T11:02:08;6.30;;;5.80;;
7817;SDS011;3954;52.624;9.212;2023-05-10T11:04:41;6.13;;;5.53;;
7817;SDS011;3954;52.624;9.212;2023-05-10T11:07:17;6.80;;;6.03;;
7817;SDS011;3954;52.624;9.212;2023-05-10T11:09:44;7.25;;;6.05;;
7817;SDS011;3954;52.624;9.212;2023-05-10T11:12:11;7.13;;;6.43;;
7817;SDS011;3954;52.624;9.212;2023-05-10T11:14:37;7.07;;;6.47;;
7817;SDS011;3954;52.624;9.212;2023-05-10T11:17:17;6.20;;;5.60;;
7817;SDS011;3954;52.624;9.212;2023-05-10T11:20:02;6.35;;;5.70;;
7817;SDS011;3954;52.624;9.212;2023-05-10T11:22:28;6.38;;;5.55;;
7817;SDS011;3954;52.624;9.212;2023-05-10T11:24:57;6.32;;;5.80;;
7817;SDS011;3954;52.624;9.212;2023-05-10T11:27:25;6.30;;;5.70;;
7817;SDS011;3954;52.624;9.212;2023-05-10T11:29:51;6.75;;;6.05;;
7817;SDS011;3954;52.624;9.212;2023-05-10T11:32:17;6.10;;;5.50;;
7817;SDS011;3954;52.624;9.212;2023-05-10T11:34:46;6.95;;;5.65;;
7817;SDS011;3954;52.624;9.212;2023-05-10T11:37:13;7.72;;;6.97;;
7817;SDS011;3954;52.624;9.212;2023-05-10T11:39:45;6.20;;;5.70;;
7817;SDS011;3954;52.624;9.212;2023-05-10T11:42:12;8.13;;;6.82;;
7817;SDS011;3954;52.624;9.212;2023-05-10T11:44:40;10.87;;;8.07;;
7817;SDS011;3954;52.624;9.212;2023-05-10T11:47:08;8.07;;;7.25;;
7817;SDS011;3954;52.624;9.212;2023-05-10T11:49:34;5.47;;;4.00;;
7817;SDS011;3954;52.624;9.212;2023-05-10T11:52:03;4.13;;;3.70;;
7817;SDS011;3954;52.624;9.212;2023-05-10T11:54:30;4.10;;;3.60;;
7817;SDS011;3954;52.624;9.212;2023-05-10T11:56:56;4.28;;;3.67;;
7817;SDS011;3954;52.624;9.212;2023-05-10T11:59:22;4.03;;;3.70;;
7817;SDS011;3954;52.624;9.212;2023-05-10T12:01:49;5.35;;;4.85;;
7817;SDS011;3954;52.624;9.212;2023-05-10T12:04:15;6.97;;;5.28;;
7817;SDS011;3954;52.624;9.212;2023-05-10T12:06:41;5.60;;;5.10;;
7817;SDS011;3954;52.624;9.212;2023-05-10T12:09:07;7.85;;;5.80;;
7817;SDS011;3954;52.624;9.212;2023-05-10T12:11:36;7.10;;;6.40;;
7817;SDS011;3954;52.624;9.212;2023-05-10T12:14:03;7.13;;;6.43;;
7817;SDS011;3954;52.624;9.212;2023-05-10T12:16:30;8.10;;;7.30;;
7817;SDS011;3954;52.624;9.212;2023-05-10T12:18:58;9.35;;;8.07;;
7817;SDS011;3954;52.624;9.212;2023-05-10T12:21:25;10.07;;;9.07;;
7817;SDS011;3954;52.624;9.212;2023-05-10T12:23:52;11.05;;;10.05;;
7817;SDS011;3954;52.624;9.212;2023-05-10T12:26:20;12.40;;;10.63;;
7817;SDS011;3954;52.624;9.212;2023-05-10T12:28:47;9.40;;;8.50;;
7817;SDS011;3954;52.624;9.212;2023-05-10T12:31:13;10.57;;;9.48;;
7817;SDS011;3954;52.624;9.212;2023-05-10T12:33:40;9.60;;;8.70;;
7817;SDS011;3954;52.624;9.212;2023-05-10T12:36:10;12.68;;;11.38;;
7817;SDS011;3954;52.624;9.212;2023-05-10T12:38:37;12.30;;;11.15;;
7817;SDS011;3954;52.624;9.212;2023-05-10T12:41:05;13.82;;;12.32;;
7817;SDS011;3954;52.624;9.212;2023-05-10T12:43:31;11.88;;;10.77;;
7817;SDS011;3954;52.624;9.212;2023-05-10T12:45:57;11.90;;;10.70;;
7817;SDS011;3954;52.624;9.212;2023-05-10T12:48:24;10.97;;;9.87;;
7817;SDS011;3954;52.624;9.212;2023-05-10T12:50:50;10.95;;;9.85;;
7817;SDS011;3954;52.624;9.212;2023-05-10T12:53:17;10.50;;;8.77;;
7817;SDS011;3954;52.624;9.212;2023-05-10T12:55:43;8.30;;;7.50;;
7817;SDS011;3954;52.624;9.212;2023-05-10T12:58:09;8.10;;;7.13;;
7817;SDS011;3954;52.624;9.212;2023-05-10T13:00:35;7.68;;;6.72;;
7817;SDS011;3954;52.624;9.212;2023-05-10T13:03:03;6.63;;;6.03;;
7817;SDS011;3954;52.624;9.212;2023-05-10T13:05:30;7.75;;;5.35;;
7817;SDS011;3954;52.624;9.212;2023-05-10T13:07:56;5.40;;;4.70;;
7817;SDS011;3954;52.624;9.212;2023-05-10T13:10:23;6.40;;;4.80;;
7817;SDS011;3954;52.624;9.212;2023-05-10T13:12:50;4.70;;;3.40;;
7817;SDS011;3954;52.624;9.212;2023-05-10T13:15:16;4.00;;;3.60;;
7817;SDS011;3954;52.624;9.212;2023-05-10T13:17:42;4.22;;;3.63;;
7817;SDS011;3954;52.624;9.212;2023-05-10T13:20:08;3.50;;;3.20;;
7817;SDS011;3954;52.624;9.212;2023-05-10T13:22:34;4.72;;;4.32;;
7817;SDS011;3954;52.624;9.212;2023-05-10T13:25:00;5.53;;;4.47;;
7817;SDS011;3954;52.624;9.212;2023-05-10T13:27:28;5.38;;;4.03;;
7817;SDS011;3954;52.624;9.212;2023-05-10T13:29:54;4.33;;;3.80;;
7817;SDS011;3954;52.624;9.212;2023-05-10T13:32:20;3.42;;;3.13;;
7817;SDS011;3954;52.624;9.212;2023-05-10T13:34:46;4.30;;;3.00;;
7817;SDS011;3954;52.624;9.212;2023-05-10T13:37:12;3.20;;;2.80;;
7817;SDS011;3954;52.624;9.212;2023-05-10T13:39:38;3.90;;;2.40;;
7817;SDS011;3954;52.624;9.212;2023-05-10T13:42:04;2.75;;;2.33;;
7817;SDS011;3954;52.624;9.212;2023-05-10T13:44:31;2.47;;;2.10;;
7817;SDS011;3954;52.624;9.212;2023-05-10T13:46:58;2.60;;;1.93;;
7817;SDS011;3954;52.624;9.212;2023-05-10T13:49:24;2.03;;;1.83;;
7817;SDS011;3954;52.624;9.212;2023-05-10T13:51:50;1.60;;;1.50;;
7817;SDS011;3954;52.624;9.212;2023-05-10T13:54:17;1.30;;;1.20;;
7817;SDS011;3954;52.624;9.212;2023-05-10T13:56:44;2.00;;;1.40;;
7817;SDS011;3954;52.624;9.212;2023-05-10T13:59:12;1.40;;;1.30;;
7817;SDS011;3954;52.624;9.212;2023-05-10T14:01:40;1.52;;;1.40;;
7817;SDS011;3954;52.624;9.212;2023-05-10T14:04:06;2.28;;;1.40;;
7817;SDS011;3954;52.624;9.212;2023-05-10T14:06:35;1.40;;;1.17;;
7817;SDS011;3954;52.624;9.212;2023-05-10T14:09:01;1.48;;;1.38;;
7817;SDS011;3954;52.624;9.212;2023-05-10T14:11:27;3.50;;;1.42;;
7817;SDS011;3954;52.624;9.212;2023-05-10T14:13:53;1.80;;;1.20;;
7817;SDS011;3954;52.624;9.212;2023-05-10T14:16:19;2.20;;;1.30;;
7817;SDS011;3954;52.624;9.212;2023-05-10T14:18:46;2.80;;;1.35;;
7817;SDS011;3954;52.624;9.212;2023-05-10T14:21:12;1.45;;;1.30;;
7817;SDS011;3954;52.624;9.212;2023-05-10T14:23:38;1.33;;;1.23;;
7817;SDS011;3954;52.624;9.212;2023-05-10T14:26:04;2.40;;;1.60;;
7817;SDS011;3954;52.624;9.212;2023-05-10T14:28:31;1.75;;;1.30;;
7817;SDS011;3954;52.624;9.212;2023-05-10T14:30:57;1.50;;;1.30;;
7817;SDS011;3954;52.624;9.212;2023-05-10T14:33:23;1.40;;;1.20;;
7817;SDS011;3954;52.624;9.212;2023-05-10T14:35:51;1.20;;;1.10;;
7817;SDS011;3954;52.624;9.212;2023-05-10T14:38:17;2.75;;;1.30;;
7817;SDS011;3954;52.624;9.212;2023-05-10T14:40:43;1.80;;;1.30;;
7817;SDS011;3954;52.624;9.212;2023-05-10T14:43:09;1.58;;;1.30;;
7817;SDS011;3954;52.624;9.212;2023-05-10T14:45:35;1.50;;;1.40;;
7817;SDS011;3954;52.624;9.212;2023-05-10T14:48:01;3.50;;;1.50;;
7817;SDS011;3954;52.624;9.212;2023-05-10T14:50:29;2.00;;;1.40;;
7817;SDS011;3954;52.624;9.212;2023-05-10T14:52:57;2.38;;;1.65;;
7817;SDS011;3954;52.624;9.212;2023-05-10T14:55:24;1.40;;;1.30;;
7817;SDS011;3954;52.624;9.212;2023-05-10T14:57:50;2.20;;;1.75;;
7817;SDS011;3954;52.624;9.212;2023-05-10T15:00:16;2.08;;;1.65;;
7817;SDS011;3954;52.624;9.212;2023-05-10T15:02:44;2.33;;;1.50;;
7817;SDS011;3954;52.624;9.212;2023-05-10T15:05:10;1.60;;;1.50;;
7817;SDS011;3954;52.624;9.212;2023-05-10T15:07:36;1.25;;;1.10;;
7817;SDS011;3954;52.624;9.212;2023-05-10T15:10:04;1.17;;;1.00;;
7817;SDS011;3954;52.624;9.212;2023-05-10T15:12:30;1.83;;;1.10;;
7817;SDS011;3954;52.624;9.212;2023-05-10T15:14:56;1.15;;;0.90;;
7817;SDS011;3954;52.624;9.212;2023-05-10T15:17:22;1.00;;;0.90;;
7817;SDS011;3954;52.624;9.212;2023-05-10T15:19:48;1.60;;;1.20;;
7817;SDS011;3954;52.624;9.212;2023-05-10T15:22:14;2.60;;;1.03;;